sensor_id;sensor_type;location;lat;lon;timestamp;P1;durP1;ratioP1;P2;durP2;ratioP2
43118;SDS011;28729;49.838;8.650;2022-11-25T00:01:38;8.55;;;2.05;;
43118;SDS011;28729;49.838;8.650;2022-11-25T00:05:42;12.10;;;2.28;;
43118;SDS011;28729;49.838;8.650;2022-11-25T00:09:44;4.72;;;1.70;;
43118;SDS011;28729;49.838;8.650;2022-11-25T00:13:46;7.15;;;2.13;;
43118;SDS011;28729;49.838;8.650;2022-11-25T00:17:48;8.82;;;2.08;;
43118;SDS011;28729;49.838;8.650;2022-11-25T00:21:50;12.48;;;2.35;;
43118;SDS011;28729;49.838;8.650;2022-11-25T00:25:51;7.65;;;2.30;;
43118;SDS011;28729;49.838;8.650;2022-11-25T00:29:53;10.27;;;2.40;;
43118;SDS011;28729;49.838;8.650;2022-11-25T00:33:55;10.05;;;2.25;;
43118;SDS011;28729;49.838;8.650;2022-11-25T00:37:57;12.93;;;2.17;;
43118;SDS011;28729;49.838;8.650;2022-11-25T00:41:58;9.18;;;2.67;;
43118;SDS011;28729;49.838;8.650;2022-11-25T00:46:19;7.47;;;1.80;;
43118;SDS011;28729;49.838;8.650;2022-11-25T00:50:20;8.45;;;1.95;;
43118;SDS011;28729;49.838;8.650;2022-11-25T00:54:22;7.90;;;2.05;;
43118;SDS011;28729;49.838;8.650;2022-11-25T00:58:24;12.10;;;2.10;;
43118;SDS011;28729;49.838;8.650;2022-11-25T01:02:27;5.78;;;2.25;;
43118;SDS011;28729;49.838;8.650;2022-11-25T01:06:29;11.00;;;2.50;;
43118;SDS011;28729;49.838;8.650;2022-11-25T01:10:31;6.93;;;2.50;;
43118;SDS011;28729;49.838;8.650;2022-11-25T01:14:33;10.38;;;2.95;;
43118;SDS011;28729;49.838;8.650;2022-11-25T01:18:35;8.87;;;2.20;;
43118;SDS011;28729;49.838;8.650;2022-11-25T01:22:37;7.22;;;2.00;;
43118;SDS011;28729;49.838;8.650;2022-11-25T01:26:39;10.15;;;2.20;;
43118;SDS011;28729;49.838;8.650;2022-11-25T01:30:41;8.18;;;3.08;;
43118;SDS011;28729;49.838;8.650;2022-11-25T01:34:43;11.25;;;2.20;;
43118;SDS011;28729;49.838;8.650;2022-11-25T01:38:47;7.82;;;1.92;;
43118;SDS011;28729;49.838;8.650;2022-11-25T01:42:51;9.95;;;2.45;;
43118;SDS011;28729;49.838;8.650;2022-11-25T01:46:54;15.13;;;2.25;;
43118;SDS011;28729;49.838;8.650;2022-11-25T01:51:23;5.35;;;2.35;;
43118;SDS011;28729;49.838;8.650;2022-11-25T01:55:30;8.10;;;2.10;;
43118;SDS011;28729;49.838;8.650;2022-11-25T01:59:37;8.15;;;2.58;;
43118;SDS011;28729;49.838;8.650;2022-11-25T02:03:44;12.88;;;3.10;;
43118;SDS011;28729;49.838;8.650;2022-11-25T02:07:50;13.88;;;3.80;;
43118;SDS011;28729;49.838;8.650;2022-11-25T02:11:54;9.45;;;3.75;;
43118;SDS011;28729;49.838;8.650;2022-11-25T02:15:57;17.13;;;3.70;;
43118;SDS011;28729;49.838;8.650;2022-11-25T02:20:00;12.02;;;3.65;;
43118;SDS011;28729;49.838;8.650;2022-11-25T02:24:12;10.38;;;4.03;;
43118;SDS011;28729;49.838;8.650;2022-11-25T02:28:23;12.38;;;4.65;;
43118;SDS011;28729;49.838;8.650;2022-11-25T02:32:27;11.00;;;3.95;;
43118;SDS011;28729;49.838;8.650;2022-11-25T02:36:28;13.93;;;3.90;;
43118;SDS011;28729;49.838;8.650;2022-11-25T02:40:31;12.23;;;3.70;;
43118;SDS011;28729;49.838;8.650;2022-11-25T02:44:36;10.43;;;3.92;;
43118;SDS011;28729;49.838;8.650;2022-11-25T02:48:39;13.52;;;3.25;;
43118;SDS011;28729;49.838;8.650;2022-11-25T02:53:02;9.57;;;3.35;;
43118;SDS011;28729;49.838;8.650;2022-11-25T02:57:03;13.68;;;3.70;;
43118;SDS011;28729;49.838;8.650;2022-11-25T03:01:07;17.27;;;4.88;;
43118;SDS011;28729;49.838;8.650;2022-11-25T03:05:09;14.90;;;4.47;;
43118;SDS011;28729;49.838;8.650;2022-11-25T03:09:12;11.43;;;4.17;;
43118;SDS011;28729;49.838;8.650;2022-11-25T03:13:14;21.13;;;4.95;;
43118;SDS011;28729;49.838;8.650;2022-11-25T03:17:16;21.10;;;5.15;;
43118;SDS011;28729;49.838;8.650;2022-11-25T03:21:18;11.15;;;5.10;;
43118;SDS011;28729;49.838;8.650;2022-11-25T03:25:19;11.15;;;5.72;;
43118;SDS011;28729;49.838;8.650;2022-11-25T03:29:23;14.13;;;5.03;;
43118;SDS011;28729;49.838;8.650;2022-11-25T03:33:25;5.32;;;2.97;;
43118;SDS011;28729;49.838;8.650;2022-11-25T03:37:29;13.63;;;5.15;;
43118;SDS011;28729;49.838;8.650;2022-11-25T03:41:31;7.53;;;3.63;;
43118;SDS011;28729;49.838;8.650;2022-11-25T03:45:33;10.95;;;3.83;;
43118;SDS011;28729;49.838;8.650;2022-11-25T03:49:40;11.63;;;4.32;;
43118;SDS011;28729;49.838;8.650;2022-11-25T03:53:43;10.02;;;4.20;;
43118;SDS011;28729;49.838;8.650;2022-11-25T03:57:45;12.70;;;4.30;;
43118;SDS011;28729;49.838;8.650;2022-11-25T04:01:46;10.52;;;4.38;;
43118;SDS011;28729;49.838;8.650;2022-11-25T04:05:48;11.63;;;4.35;;
43118;SDS011;28729;49.838;8.650;2022-11-25T04:09:50;12.32;;;4.53;;
43118;SDS011;28729;49.838;8.650;2022-11-25T04:13:56;11.70;;;5.63;;
43118;SDS011;28729;49.838;8.650;2022-11-25T04:17:58;8.57;;;3.88;;
43118;SDS011;28729;49.838;8.650;2022-11-25T04:21:59;13.35;;;4.57;;
43118;SDS011;28729;49.838;8.650;2022-11-25T04:26:04;10.65;;;4.85;;
43118;SDS011;28729;49.838;8.650;2022-11-25T04:30:10;10.98;;;4.65;;
43118;SDS011;28729;49.838;8.650;2022-11-25T04:34:15;8.65;;;4.43;;
43118;SDS011;28729;49.838;8.650;2022-11-25T04:38:20;12.85;;;5.18;;
43118;SDS011;28729;49.838;8.650;2022-11-25T04:46:37;11.60;;;4.97;;
43118;SDS011;28729;49.838;8.650;2022-11-25T04:50:41;19.13;;;5.45;;
43118;SDS011;28729;49.838;8.650;2022-11-25T04:54:46;15.13;;;5.55;;
43118;SDS011;28729;49.838;8.650;2022-11-25T04:58:48;11.38;;;5.38;;
43118;SDS011;28729;49.838;8.650;2022-11-25T05:03:12;10.07;;;5.05;;
43118;SDS011;28729;49.838;8.650;2022-11-25T05:07:14;13.75;;;6.15;;
43118;SDS011;28729;49.838;8.650;2022-11-25T05:11:20;12.77;;;5.53;;
43118;SDS011;28729;49.838;8.650;2022-11-25T05:19:26;11.88;;;5.07;;
43118;SDS011;28729;49.838;8.650;2022-11-25T05:23:29;14.38;;;5.38;;
43118;SDS011;28729;49.838;8.650;2022-11-25T05:27:32;12.45;;;5.20;;
43118;SDS011;28729;49.838;8.650;2022-11-25T05:31:40;15.60;;;5.82;;
43118;SDS011;28729;49.838;8.650;2022-11-25T05:35:42;12.05;;;5.00;;
43118;SDS011;28729;49.838;8.650;2022-11-25T05:39:43;11.88;;;5.13;;
43118;SDS011;28729;49.838;8.650;2022-11-25T05:44:01;10.90;;;5.10;;
43118;SDS011;28729;49.838;8.650;2022-11-25T05:48:06;11.07;;;4.75;;
43118;SDS011;28729;49.838;8.650;2022-11-25T05:52:08;12.93;;;3.83;;
43118;SDS011;28729;49.838;8.650;2022-11-25T05:56:19;15.82;;;5.15;;
43118;SDS011;28729;49.838;8.650;2022-11-25T06:00:36;11.23;;;5.30;;
43118;SDS011;28729;49.838;8.650;2022-11-25T06:04:43;14.68;;;4.97;;
43118;SDS011;28729;49.838;8.650;2022-11-25T06:08:45;11.77;;;5.10;;
43118;SDS011;28729;49.838;8.650;2022-11-25T06:12:47;10.90;;;4.83;;
43118;SDS011;28729;49.838;8.650;2022-11-25T06:16:49;9.05;;;4.47;;
43118;SDS011;28729;49.838;8.650;2022-11-25T06:20:57;13.73;;;4.90;;
43118;SDS011;28729;49.838;8.650;2022-11-25T06:25:01;12.82;;;4.50;;
43118;SDS011;28729;49.838;8.650;2022-11-25T06:29:08;11.35;;;4.40;;
43118;SDS011;28729;49.838;8.650;2022-11-25T06:33:10;9.75;;;3.00;;
43118;SDS011;28729;49.838;8.650;2022-11-25T06:37:14;9.02;;;3.80;;
43118;SDS011;28729;49.838;8.650;2022-11-25T06:41:16;8.98;;;3.42;;
43118;SDS011;28729;49.838;8.650;2022-11-25T06:45:18;10.70;;;3.67;;
43118;SDS011;28729;49.838;8.650;2022-11-25T06:49:19;9.82;;;4.25;;
43118;SDS011;28729;49.838;8.650;2022-11-25T06:53:21;9.95;;;3.30;;
43118;SDS011;28729;49.838;8.650;2022-11-25T07:01:27;9.00;;;3.65;;
43118;SDS011;28729;49.838;8.650;2022-11-25T07:05:29;11.10;;;3.38;;
43118;SDS011;28729;49.838;8.650;2022-11-25T07:09:31;9.23;;;3.83;;
43118;SDS011;28729;49.838;8.650;2022-11-25T07:13:33;5.80;;;3.00;;
43118;SDS011;28729;49.838;8.650;2022-11-25T07:17:35;10.25;;;3.90;;
43118;SDS011;28729;49.838;8.650;2022-11-25T07:21:36;10.32;;;3.50;;
43118;SDS011;28729;49.838;8.650;2022-11-25T07:25:38;10.43;;;2.63;;
43118;SDS011;28729;49.838;8.650;2022-11-25T07:29:40;5.85;;;2.50;;
43118;SDS011;28729;49.838;8.650;2022-11-25T07:34:03;6.90;;;2.55;;
43118;SDS011;28729;49.838;8.650;2022-11-25T07:38:27;6.78;;;2.50;;
43118;SDS011;28729;49.838;8.650;2022-11-25T07:47:55;5.18;;;2.40;;
43118;SDS011;28729;49.838;8.650;2022-11-25T07:51:58;7.07;;;2.45;;
43118;SDS011;28729;49.838;8.650;2022-11-25T07:56:07;5.88;;;2.03;;
43118;SDS011;28729;49.838;8.650;2022-11-25T08:00:09;4.93;;;1.88;;
43118;SDS011;28729;49.838;8.650;2022-11-25T08:04:12;8.90;;;1.77;;
43118;SDS011;28729;49.838;8.650;2022-11-25T08:08:21;8.55;;;2.50;;
43118;SDS011;28729;49.838;8.650;2022-11-25T08:12:23;5.72;;;2.20;;
43118;SDS011;28729;49.838;8.650;2022-11-25T08:16:26;9.85;;;2.28;;
43118;SDS011;28729;49.838;8.650;2022-11-25T08:20:29;5.57;;;2.25;;
43118;SDS011;28729;49.838;8.650;2022-11-25T08:24:31;5.75;;;1.30;;
43118;SDS011;28729;49.838;8.650;2022-11-25T08:28:33;4.40;;;2.15;;
43118;SDS011;28729;49.838;8.650;2022-11-25T08:32:37;7.57;;;1.67;;
43118;SDS011;28729;49.838;8.650;2022-11-25T08:36:39;7.72;;;1.80;;
43118;SDS011;28729;49.838;8.650;2022-11-25T08:40:48;6.25;;;1.63;;
43118;SDS011;28729;49.838;8.650;2022-11-25T08:44:50;6.85;;;2.60;;
43118;SDS011;28729;49.838;8.650;2022-11-25T08:48:56;7.32;;;2.00;;
43118;SDS011;28729;49.838;8.650;2022-11-25T08:53:00;5.60;;;1.88;;
43118;SDS011;28729;49.838;8.650;2022-11-25T08:57:02;4.93;;;1.40;;
43118;SDS011;28729;49.838;8.650;2022-11-25T09:01:07;5.65;;;2.00;;
43118;SDS011;28729;49.838;8.650;2022-11-25T09:05:10;6.07;;;1.92;;
43118;SDS011;28729;49.838;8.650;2022-11-25T09:09:14;5.20;;;2.30;;
43118;SDS011;28729;49.838;8.650;2022-11-25T09:13:15;7.78;;;2.17;;
43118;SDS011;28729;49.838;8.650;2022-11-25T09:17:18;7.55;;;2.38;;
43118;SDS011;28729;49.838;8.650;2022-11-25T09:21:20;5.50;;;2.42;;
43118;SDS011;28729;49.838;8.650;2022-11-25T09:25:22;4.30;;;2.58;;
43118;SDS011;28729;49.838;8.650;2022-11-25T09:29:23;9.30;;;3.00;;
43118;SDS011;28729;49.838;8.650;2022-11-25T09:33:26;6.75;;;2.92;;
43118;SDS011;28729;49.838;8.650;2022-11-25T09:50:47;11.95;;;3.13;;
43118;SDS011;28729;49.838;8.650;2022-11-25T09:55:04;10.63;;;3.20;;
43118;SDS011;28729;49.838;8.650;2022-11-25T09:59:14;8.27;;;3.22;;
43118;SDS011;28729;49.838;8.650;2022-11-25T10:03:33;8.50;;;3.60;;
43118;SDS011;28729;49.838;8.650;2022-11-25T10:07:45;9.82;;;3.30;;
43118;SDS011;28729;49.838;8.650;2022-11-25T10:11:55;8.98;;;3.28;;
43118;SDS011;28729;49.838;8.650;2022-11-25T10:16:02;10.25;;;3.72;;
43118;SDS011;28729;49.838;8.650;2022-11-25T10:24:25;11.60;;;4.00;;
43118;SDS011;28729;49.838;8.650;2022-11-25T10:28:29;11.55;;;4.03;;
43118;SDS011;28729;49.838;8.650;2022-11-25T10:32:36;8.43;;;3.75;;
43118;SDS011;28729;49.838;8.650;2022-11-25T10:36:45;10.80;;;3.23;;
43118;SDS011;28729;49.838;8.650;2022-11-25T10:40:50;10.30;;;4.20;;
43118;SDS011;28729;49.838;8.650;2022-11-25T10:44:55;8.23;;;3.45;;
43118;SDS011;28729;49.838;8.650;2022-11-25T10:53:12;7.82;;;3.60;;
43118;SDS011;28729;49.838;8.650;2022-11-25T10:57:18;10.43;;;3.47;;
43118;SDS011;28729;49.838;8.650;2022-11-25T11:10:38;7.03;;;3.63;;
43118;SDS011;28729;49.838;8.650;2022-11-25T11:14:40;7.90;;;3.83;;
43118;SDS011;28729;49.838;8.650;2022-11-25T11:18:42;11.40;;;3.78;;
43118;SDS011;28729;49.838;8.650;2022-11-25T11:22:48;8.35;;;4.43;;
43118;SDS011;28729;49.838;8.650;2022-11-25T11:27:06;10.77;;;4.22;;
43118;SDS011;28729;49.838;8.650;2022-11-25T11:31:24;11.68;;;3.90;;
43118;SDS011;28729;49.838;8.650;2022-11-25T11:35:46;9.55;;;4.15;;
43118;SDS011;28729;49.838;8.650;2022-11-25T11:57:52;15.27;;;4.80;;
43118;SDS011;28729;49.838;8.650;2022-11-25T12:02:12;12.10;;;4.03;;
43118;SDS011;28729;49.838;8.650;2022-11-25T12:06:20;10.90;;;4.35;;
43118;SDS011;28729;49.838;8.650;2022-11-25T12:10:35;10.48;;;3.92;;
43118;SDS011;28729;49.838;8.650;2022-11-25T12:14:42;9.52;;;4.22;;
43118;SDS011;28729;49.838;8.650;2022-11-25T12:31:57;8.15;;;4.30;;
43118;SDS011;28729;49.838;8.650;2022-11-25T12:36:11;7.53;;;4.05;;
43118;SDS011;28729;49.838;8.650;2022-11-25T12:40:35;14.88;;;4.70;;
43118;SDS011;28729;49.838;8.650;2022-11-25T12:44:56;10.13;;;4.20;;
43118;SDS011;28729;49.838;8.650;2022-11-25T12:49:13;13.35;;;4.78;;
43118;SDS011;28729;49.838;8.650;2022-11-25T13:07:22;9.27;;;4.93;;
43118;SDS011;28729;49.838;8.650;2022-11-25T13:16:05;8.60;;;4.20;;
43118;SDS011;28729;49.838;8.650;2022-11-25T13:24:33;11.82;;;4.40;;
43118;SDS011;28729;49.838;8.650;2022-11-25T13:28:39;12.45;;;4.78;;
43118;SDS011;28729;49.838;8.650;2022-11-25T13:32:41;10.60;;;4.50;;
43118;SDS011;28729;49.838;8.650;2022-11-25T13:36:46;9.38;;;4.18;;
43118;SDS011;28729;49.838;8.650;2022-11-25T13:41:00;10.93;;;4.60;;
43118;SDS011;28729;49.838;8.650;2022-11-25T13:45:04;8.18;;;3.95;;
43118;SDS011;28729;49.838;8.650;2022-11-25T13:49:43;11.75;;;4.57;;
43118;SDS011;28729;49.838;8.650;2022-11-25T13:54:14;11.40;;;4.15;;
43118;SDS011;28729;49.838;8.650;2022-11-25T13:58:19;11.13;;;4.10;;
43118;SDS011;28729;49.838;8.650;2022-11-25T14:06:34;11.57;;;4.10;;
43118;SDS011;28729;49.838;8.650;2022-11-25T14:10:44;11.75;;;4.20;;
43118;SDS011;28729;49.838;8.650;2022-11-25T14:20:04;10.85;;;4.22;;
43118;SDS011;28729;49.838;8.650;2022-11-25T14:24:29;13.35;;;4.68;;
43118;SDS011;28729;49.838;8.650;2022-11-25T14:29:16;9.63;;;4.68;;
43118;SDS011;28729;49.838;8.650;2022-11-25T14:33:25;14.10;;;7.70;;
43118;SDS011;28729;49.838;8.650;2022-11-25T14:41:58;11.48;;;5.03;;
43118;SDS011;28729;49.838;8.650;2022-11-25T14:46:27;10.90;;;5.03;;
43118;SDS011;28729;49.838;8.650;2022-11-25T14:50:29;11.60;;;4.95;;
43118;SDS011;28729;49.838;8.650;2022-11-25T14:54:40;9.60;;;5.30;;
43118;SDS011;28729;49.838;8.650;2022-11-25T14:58:46;15.15;;;5.50;;
43118;SDS011;28729;49.838;8.650;2022-11-25T15:02:59;17.10;;;6.50;;
43118;SDS011;28729;49.838;8.650;2022-11-25T15:07:14;16.45;;;6.07;;
43118;SDS011;28729;49.838;8.650;2022-11-25T15:11:21;11.73;;;4.68;;
43118;SDS011;28729;49.838;8.650;2022-11-25T15:15:26;12.18;;;6.22;;
43118;SDS011;28729;49.838;8.650;2022-11-25T15:19:30;14.82;;;6.18;;
43118;SDS011;28729;49.838;8.650;2022-11-25T15:23:36;11.95;;;4.72;;
43118;SDS011;28729;49.838;8.650;2022-11-25T15:27:45;13.57;;;6.30;;
43118;SDS011;28729;49.838;8.650;2022-11-25T15:31:50;10.68;;;4.90;;
43118;SDS011;28729;49.838;8.650;2022-11-25T15:35:53;8.70;;;4.82;;
43118;SDS011;28729;49.838;8.650;2022-11-25T15:44:55;11.00;;;4.90;;
43118;SDS011;28729;49.838;8.650;2022-11-25T15:49:13;11.00;;;4.50;;
43118;SDS011;28729;49.838;8.650;2022-11-25T15:53:24;15.70;;;4.57;;
43118;SDS011;28729;49.838;8.650;2022-11-25T15:57:34;10.93;;;4.88;;
43118;SDS011;28729;49.838;8.650;2022-11-25T16:01:37;14.60;;;4.82;;
43118;SDS011;28729;49.838;8.650;2022-11-25T16:05:50;9.32;;;4.38;;
43118;SDS011;28729;49.838;8.650;2022-11-25T16:09:56;11.52;;;4.97;;
43118;SDS011;28729;49.838;8.650;2022-11-25T16:18:21;11.77;;;5.35;;
43118;SDS011;28729;49.838;8.650;2022-11-25T16:22:41;12.02;;;5.80;;
43118;SDS011;28729;49.838;8.650;2022-11-25T16:31:21;16.38;;;8.30;;
43118;SDS011;28729;49.838;8.650;2022-11-25T16:35:23;12.37;;;6.70;;
43118;SDS011;28729;49.838;8.650;2022-11-25T16:39:25;14.38;;;5.32;;
43118;SDS011;28729;49.838;8.650;2022-11-25T16:43:27;11.02;;;4.55;;
43118;SDS011;28729;49.838;8.650;2022-11-25T16:47:28;9.60;;;4.53;;
43118;SDS011;28729;49.838;8.650;2022-11-25T16:51:30;11.40;;;5.03;;
43118;SDS011;28729;49.838;8.650;2022-11-25T16:55:32;11.00;;;5.60;;
43118;SDS011;28729;49.838;8.650;2022-11-25T16:59:35;15.48;;;4.88;;
43118;SDS011;28729;49.838;8.650;2022-11-25T17:03:43;13.90;;;5.35;;
43118;SDS011;28729;49.838;8.650;2022-11-25T17:07:44;14.00;;;5.30;;
43118;SDS011;28729;49.838;8.650;2022-11-25T17:11:48;15.32;;;6.72;;
43118;SDS011;28729;49.838;8.650;2022-11-25T17:15:55;12.63;;;6.60;;
43118;SDS011;28729;49.838;8.650;2022-11-25T17:19:56;15.93;;;5.38;;
43118;SDS011;28729;49.838;8.650;2022-11-25T17:23:59;14.73;;;5.15;;
43118;SDS011;28729;49.838;8.650;2022-11-25T17:28:03;11.88;;;4.38;;
43118;SDS011;28729;49.838;8.650;2022-11-25T17:32:04;14.93;;;4.72;;
43118;SDS011;28729;49.838;8.650;2022-11-25T17:36:08;12.23;;;4.87;;
43118;SDS011;28729;49.838;8.650;2022-11-25T17:40:11;12.07;;;4.20;;
43118;SDS011;28729;49.838;8.650;2022-11-25T17:44:19;16.48;;;5.53;;
43118;SDS011;28729;49.838;8.650;2022-11-25T17:48:24;8.80;;;5.03;;
43118;SDS011;28729;49.838;8.650;2022-11-25T17:52:27;12.37;;;5.57;;
43118;SDS011;28729;49.838;8.650;2022-11-25T17:56:28;11.35;;;5.20;;
43118;SDS011;28729;49.838;8.650;2022-11-25T18:00:32;16.92;;;6.18;;
43118;SDS011;28729;49.838;8.650;2022-11-25T18:04:35;14.57;;;6.13;;
43118;SDS011;28729;49.838;8.650;2022-11-25T18:08:39;12.98;;;5.50;;
43118;SDS011;28729;49.838;8.650;2022-11-25T18:12:41;13.07;;;5.20;;
43118;SDS011;28729;49.838;8.650;2022-11-25T18:16:45;10.15;;;4.45;;
43118;SDS011;28729;49.838;8.650;2022-11-25T18:20:47;11.05;;;4.13;;
43118;SDS011;28729;49.838;8.650;2022-11-25T18:24:49;14.53;;;5.17;;
43118;SDS011;28729;49.838;8.650;2022-11-25T18:28:50;13.10;;;4.88;;
43118;SDS011;28729;49.838;8.650;2022-11-25T18:32:52;11.35;;;5.40;;
43118;SDS011;28729;49.838;8.650;2022-11-25T18:36:54;12.47;;;5.33;;
43118;SDS011;28729;49.838;8.650;2022-11-25T18:40:56;17.35;;;5.13;;
43118;SDS011;28729;49.838;8.650;2022-11-25T18:44:57;16.10;;;5.50;;
43118;SDS011;28729;49.838;8.650;2022-11-25T18:48:59;13.43;;;5.20;;
43118;SDS011;28729;49.838;8.650;2022-11-25T18:53:01;15.25;;;5.10;;
43118;SDS011;28729;49.838;8.650;2022-11-25T18:57:03;19.35;;;6.50;;
43118;SDS011;28729;49.838;8.650;2022-11-25T19:01:09;16.27;;;5.65;;
43118;SDS011;28729;49.838;8.650;2022-11-25T19:05:13;10.40;;;4.25;;
43118;SDS011;28729;49.838;8.650;2022-11-25T19:09:16;13.25;;;4.70;;
43118;SDS011;28729;49.838;8.650;2022-11-25T19:13:24;13.88;;;4.82;;
43118;SDS011;28729;49.838;8.650;2022-11-25T19:17:30;13.00;;;5.43;;
43118;SDS011;28729;49.838;8.650;2022-11-25T19:21:31;11.80;;;4.63;;
43118;SDS011;28729;49.838;8.650;2022-11-25T19:25:33;18.60;;;5.33;;
43118;SDS011;28729;49.838;8.650;2022-11-25T19:29:36;13.52;;;4.28;;
43118;SDS011;28729;49.838;8.650;2022-11-25T19:33:43;13.50;;;4.32;;
43118;SDS011;28729;49.838;8.650;2022-11-25T19:37:47;10.88;;;4.60;;
43118;SDS011;28729;49.838;8.650;2022-11-25T19:41:48;14.52;;;4.70;;
43118;SDS011;28729;49.838;8.650;2022-11-25T19:45:50;14.25;;;5.20;;
43118;SDS011;28729;49.838;8.650;2022-11-25T19:49:53;11.68;;;6.63;;
43118;SDS011;28729;49.838;8.650;2022-11-25T19:53:58;13.90;;;6.40;;
43118;SDS011;28729;49.838;8.650;2022-11-25T19:57:59;14.27;;;6.60;;
43118;SDS011;28729;49.838;8.650;2022-11-25T20:02:01;12.32;;;6.78;;
43118;SDS011;28729;49.838;8.650;2022-11-25T20:06:03;20.20;;;7.53;;
43118;SDS011;28729;49.838;8.650;2022-11-25T20:10:16;16.85;;;5.78;;
43118;SDS011;28729;49.838;8.650;2022-11-25T20:14:20;7.93;;;4.30;;
43118;SDS011;28729;49.838;8.650;2022-11-25T20:18:22;14.13;;;6.20;;
43118;SDS011;28729;49.838;8.650;2022-11-25T20:22:27;12.85;;;4.85;;
43118;SDS011;28729;49.838;8.650;2022-11-25T20:26:35;13.25;;;5.00;;
43118;SDS011;28729;49.838;8.650;2022-11-25T20:30:38;11.40;;;4.95;;
43118;SDS011;28729;49.838;8.650;2022-11-25T20:34:40;18.23;;;5.70;;
43118;SDS011;28729;49.838;8.650;2022-11-25T20:38:46;12.82;;;5.35;;
43118;SDS011;28729;49.838;8.650;2022-11-25T20:42:50;12.82;;;4.65;;
43118;SDS011;28729;49.838;8.650;2022-11-25T20:46:53;9.73;;;4.40;;
43118;SDS011;28729;49.838;8.650;2022-11-25T20:50:57;16.33;;;5.15;;
43118;SDS011;28729;49.838;8.650;2022-11-25T20:55:00;16.98;;;5.00;;
43118;SDS011;28729;49.838;8.650;2022-11-25T20:59:17;10.95;;;4.93;;
43118;SDS011;28729;49.838;8.650;2022-11-25T21:03:22;15.50;;;5.50;;
43118;SDS011;28729;49.838;8.650;2022-11-25T21:07:23;15.20;;;4.85;;
43118;SDS011;28729;49.838;8.650;2022-11-25T21:11:25;14.40;;;4.95;;
43118;SDS011;28729;49.838;8.650;2022-11-25T21:19:29;17.35;;;4.80;;
43118;SDS011;28729;49.838;8.650;2022-11-25T21:23:34;20.85;;;4.95;;
43118;SDS011;28729;49.838;8.650;2022-11-25T21:27:38;10.60;;;4.72;;
43118;SDS011;28729;49.838;8.650;2022-11-25T21:31:40;15.20;;;5.85;;
43118;SDS011;28729;49.838;8.650;2022-11-25T21:35:45;14.27;;;4.72;;
43118;SDS011;28729;49.838;8.650;2022-11-25T21:39:49;11.73;;;4.70;;
43118;SDS011;28729;49.838;8.650;2022-11-25T21:43:51;15.63;;;5.20;;
43118;SDS011;28729;49.838;8.650;2022-11-25T21:47:52;13.52;;;5.40;;
43118;SDS011;28729;49.838;8.650;2022-11-25T21:51:56;9.93;;;4.65;;
43118;SDS011;28729;49.838;8.650;2022-11-25T21:55:57;14.35;;;6.10;;
43118;SDS011;28729;49.838;8.650;2022-11-25T21:59:59;17.08;;;5.97;;
43118;SDS011;28729;49.838;8.650;2022-11-25T22:04:01;16.55;;;6.85;;
43118;SDS011;28729;49.838;8.650;2022-11-25T22:08:02;16.70;;;6.60;;
43118;SDS011;28729;49.838;8.650;2022-11-25T22:12:04;15.43;;;6.05;;
43118;SDS011;28729;49.838;8.650;2022-11-25T22:16:08;13.38;;;5.38;;
43118;SDS011;28729;49.838;8.650;2022-11-25T22:24:33;14.82;;;5.07;;
43118;SDS011;28729;49.838;8.650;2022-11-25T22:28:36;18.70;;;5.72;;
43118;SDS011;28729;49.838;8.650;2022-11-25T22:32:38;16.83;;;4.65;;
43118;SDS011;28729;49.838;8.650;2022-11-25T23:38:41;19.83;;;4.95;;
43118;SDS011;28729;49.838;8.650;2022-11-25T23:42:46;13.60;;;4.53;;
43118;SDS011;28729;49.838;8.650;2022-11-25T23:46:49;11.03;;;4.33;;
43118;SDS011;28729;49.838;8.650;2022-11-25T23:50:52;14.77;;;4.68;;
43118;SDS011;28729;49.838;8.650;2022-11-25T23:54:58;12.23;;;4.72;;
43118;SDS011;28729;49.838;8.650;2022-11-25T23:59:00;14.77;;;4.68;;
